Kaministiqua — CFN4612 — position and weather

sailwx.info

Track history (hours):
 
Tides and Currents Weather Stations Pressure Air Temp Water Temp Dewpoint Dewpoint Depression Visibility Wind Speed Wind Dir Waves Ship Positions

Kaministiqua

Last reported at 2014-Oct-24 10:27 UTC. Time now 2014-Oct-25 10:17 UTC.
Position N 44°02' W 076°28'.

Length 223 m; draft 7 m.

Type: Cargo ship. MMSI: 316009457.

Date/timePositionNaut miles runAvg speedWind from/ knotsBaromVisibWave heightAir tempDewpointWater temp
2014-Oct-24 10:27N 44°02' W 076°28'1011.5
2014-Oct-24 09:33N 44°10' W 076°19'96 6.9
2014-Oct-23 19:33N 45°06' W 074°29'1010.4
2014-Oct-23 18:33N 45°12' W 074°18'11 9.0
2014-Oct-23 17:22N 45°13' W 074°03'7 8.3
2014-Oct-23 16:33N 45°18' W 073°56'1 1.1
2014-Oct-23 15:33N 45°19' W 073°55'2 1.9
2014-Oct-23 14:33N 45°20' W 073°53'9 9.3
2014-Oct-23 13:34N 45°25' W 073°42'5 5.4
2014-Oct-23 12:33N 45°24' W 073°34'1 1.5
2014-Oct-23 11:33N 45°25' W 073°32'7 3.2
2014-Oct-23 09:30N 45°31' W 073°31'7 7.3
2014-Oct-23 08:33N 45°38' W 073°29'10 9.5
2014-Oct-23 07:33N 45°46' W 073°23'1010.0
2014-Oct-23 06:33N 45°54' W 073°14'13 8.9
2014-Oct-23 05:08N 46°04' W 073°03'1010.2
2014-Oct-23 04:11N 46°11' W 072°54'711.0
2014-Oct-23 03:33N 46°15' W 072°45'10 9.7
2014-Oct-23 02:33N 46°20' W 072°33'1110.7
2014-Oct-23 01:33N 46°26' W 072°20'  
2014-Oct-19 11:12N 46°38' W 071°56'1212.3
2014-Oct-19 10:14N 46°32' W 072°11'811.9
2014-Oct-19 09:33N 46°26' W 072°19'1211.7
2014-Oct-19 08:33N 46°19' W 072°33'2711.8
2014-Oct-19 06:19N 46°04' W 073°04'910.7
2014-Oct-19 05:29N 45°57' W 073°12'1212.5
2014-Oct-19 04:33N 45°47' W 073°21'1212.3
2014-Oct-19 03:33N 45°37' W 073°30'7 7.1
2014-Oct-19 02:33N 45°30' W 073°31'1 0.7
2014-Oct-19 01:34N 45°29' W 073°31'4 4.3
2014-Oct-19 00:34N 45°25' W 073°31'2 2.1
2014-Oct-18 23:34N 45°24' W 073°34'3 3.4
2014-Oct-18 22:34N 45°24' W 073°39'7 7.0
2014-Oct-18 21:33N 45°23' W 073°49'6 5.9
2014-Oct-18 20:33N 45°19' W 073°55'1 0.9
2014-Oct-18 19:33N 45°18' W 073°56'3 2.9
2014-Oct-18 18:34N 45°16' W 073°58'9 8.7
2014-Oct-18 17:33N 45°14' W 074°10'1111.4
2014-Oct-18 16:33N 45°08' W 074°24'90 7.4
2014-Oct-18 04:27N 44°15' W 076°06'1011.6
2014-Oct-18 03:33N 44°11' W 076°19'1211.8
2014-Oct-18 02:34N 44°01' W 076°28'  
Track history (hours):
 
Tides and Currents Weather Stations Pressure Air Temp Water Temp Dewpoint Dewpoint Depression Visibility Wind Speed Wind Dir Waves Ship Positions

Kaministiqua

Last reported at 2014-Oct-24 10:27 UTC. Time now 2014-Oct-25 10:17 UTC.
Position N 44°02' W 076°28'.

Length 223 m; draft 7 m.

Type: Cargo ship. MMSI: 316009457.

Date/timePositionNaut miles runAvg speedWind from/ knotsBaromVisibWave heightAir tempDewpointWater temp
2014-Oct-24 10:27N 44°02' W 076°28'1011.5
2014-Oct-24 09:33N 44°10' W 076°19'96 6.9
2014-Oct-23 19:33N 45°06' W 074°29'1010.4
2014-Oct-23 18:33N 45°12' W 074°18'11 9.0
2014-Oct-23 17:22N 45°13' W 074°03'7 8.3
2014-Oct-23 16:33N 45°18' W 073°56'1 1.1
2014-Oct-23 15:33N 45°19' W 073°55'2 1.9
2014-Oct-23 14:33N 45°20' W 073°53'9 9.3
2014-Oct-23 13:34N 45°25' W 073°42'5 5.4
2014-Oct-23 12:33N 45°24' W 073°34'1 1.5
2014-Oct-23 11:33N 45°25' W 073°32'7 3.2
2014-Oct-23 09:30N 45°31' W 073°31'7 7.3
2014-Oct-23 08:33N 45°38' W 073°29'10 9.5
2014-Oct-23 07:33N 45°46' W 073°23'1010.0
2014-Oct-23 06:33N 45°54' W 073°14'13 8.9
2014-Oct-23 05:08N 46°04' W 073°03'1010.2
2014-Oct-23 04:11N 46°11' W 072°54'711.0
2014-Oct-23 03:33N 46°15' W 072°45'10 9.7
2014-Oct-23 02:33N 46°20' W 072°33'1110.7
2014-Oct-23 01:33N 46°26' W 072°20'  
2014-Oct-19 11:12N 46°38' W 071°56'1212.3
2014-Oct-19 10:14N 46°32' W 072°11'811.9
2014-Oct-19 09:33N 46°26' W 072°19'1211.7
2014-Oct-19 08:33N 46°19' W 072°33'2711.8
2014-Oct-19 06:19N 46°04' W 073°04'910.7
2014-Oct-19 05:29N 45°57' W 073°12'1212.5
2014-Oct-19 04:33N 45°47' W 073°21'1212.3
2014-Oct-19 03:33N 45°37' W 073°30'7 7.1
2014-Oct-19 02:33N 45°30' W 073°31'1 0.7
2014-Oct-19 01:34N 45°29' W 073°31'4 4.3
2014-Oct-19 00:34N 45°25' W 073°31'2 2.1
2014-Oct-18 23:34N 45°24' W 073°34'3 3.4
2014-Oct-18 22:34N 45°24' W 073°39'7 7.0
2014-Oct-18 21:33N 45°23' W 073°49'6 5.9
2014-Oct-18 20:33N 45°19' W 073°55'1 0.9
2014-Oct-18 19:33N 45°18' W 073°56'3 2.9
2014-Oct-18 18:34N 45°16' W 073°58'9 8.7
2014-Oct-18 17:33N 45°14' W 074°10'1111.4
2014-Oct-18 16:33N 45°08' W 074°24'90 7.4
2014-Oct-18 04:27N 44°15' W 076°06'1011.6
2014-Oct-18 03:33N 44°11' W 076°19'1211.8
2014-Oct-18 02:34N 44°01' W 076°28'  

Dump ship's entire track history